createdAt,value
2019-06-01T00:04:05.757Z,78.12
2019-06-01T00:09:09.206Z,78.08
2019-06-01T00:14:12.544Z,78.70
2019-06-01T00:19:16.367Z,79.10
2019-06-01T00:24:19.838Z,79.00
2019-06-01T00:29:23.254Z,78.13
2019-06-01T00:34:26.902Z,78.53
2019-06-01T00:39:30.546Z,78.92
2019-06-01T00:44:33.941Z,78.86
2019-06-01T00:49:37.640Z,80.16
2019-06-01T00:54:41.003Z,80.81
2019-06-01T00:59:45.914Z,81.51
2019-06-01T01:05:00.577Z,81.35
2019-06-01T01:10:05.017Z,81.93
2019-06-01T01:15:08.730Z,81.98
2019-06-01T01:20:12.306Z,82.02
2019-06-01T01:25:16.017Z,82.42
2019-06-01T01:30:22.612Z,82.24
2019-06-01T01:35:26.036Z,81.63
2019-06-01T01:40:29.664Z,81.35
2019-06-01T01:45:33.151Z,80.97
2019-06-01T01:50:36.659Z,80.98
2019-06-01T01:55:40.108Z,80.55
2019-06-01T02:00:45.585Z,80.62
2019-06-01T02:05:49.035Z,83.58
2019-06-01T02:10:53.290Z,81.18
2019-06-01T02:15:58.165Z,81.29
2019-06-01T02:21:02.705Z,80.69
2019-06-01T02:26:06.191Z,80.90
2019-06-01T02:31:09.701Z,81.66
2019-06-01T02:36:13.122Z,82.73
2019-06-01T02:41:16.801Z,83.62
2019-06-01T02:46:20.236Z,81.31
2019-06-01T02:51:23.717Z,82.99
2019-06-01T02:56:27.321Z,83.84
2019-06-01T03:01:33.265Z,81.68
2019-06-01T03:06:37.755Z,83.66
2019-06-01T03:11:41.918Z,81.80
2019-06-01T03:16:45.422Z,81.80
2019-06-01T03:22:16.107Z,81.39
2019-06-01T03:27:21.070Z,81.98
2019-06-01T03:32:36.046Z,82.58
2019-06-01T03:37:29.798Z,83.24
2019-06-01T03:42:33.181Z,82.40
2019-06-01T03:47:36.599Z,83.53
2019-06-01T03:52:39.940Z,84.45
2019-06-01T03:57:43.293Z,84.74
2019-06-01T04:02:46.757Z,84.95
2019-06-01T04:07:50.125Z,84.67
2019-06-01T04:12:53.616Z,83.79
2019-06-01T04:17:56.960Z,84.34
2019-06-01T04:23:00.308Z,84.40
2019-06-01T04:28:06.254Z,84.65
2019-06-01T04:33:10.991Z,84.16
2019-06-01T04:38:14.407Z,83.70
2019-06-01T04:43:17.726Z,84.63
2019-06-01T04:48:21.099Z,84.22
2019-06-01T04:53:24.452Z,84.25
2019-06-01T04:58:27.815Z,83.70
2019-06-01T05:03:31.194Z,84.90
2019-06-01T05:08:34.680Z,84.23
2019-06-01T05:13:38.440Z,83.69
2019-06-01T05:18:41.781Z,82.99
2019-06-01T05:23:45.117Z,82.67
2019-06-01T05:28:48.488Z,82.80
2019-06-01T05:33:51.853Z,82.10
2019-06-01T05:38:55.197Z,82.22
2019-06-01T05:43:58.519Z,81.87
2019-06-01T05:49:01.878Z,81.69
2019-06-01T05:54:05.297Z,80.74
2019-06-01T05:59:09.851Z,80.31
2019-06-01T06:04:13.493Z,79.76
2019-06-01T06:09:17.221Z,79.73
2019-06-01T06:14:22.460Z,79.75
2019-06-01T06:19:25.648Z,78.94
2019-06-01T06:24:28.967Z,78.07
2019-06-01T06:29:32.300Z,77.78
2019-06-01T06:34:36.674Z,77.77
2019-06-01T06:39:40.067Z,77.47
2019-06-01T06:44:43.380Z,76.45
2019-06-01T06:49:46.839Z,74.95
2019-06-01T06:54:50.224Z,74.29
2019-06-01T06:59:53.576Z,74.67
2019-06-01T07:04:56.976Z,73.30
2019-06-01T07:10:00.396Z,73.09
2019-06-01T07:15:04.525Z,71.91
2019-06-01T07:20:08.036Z,71.14
2019-06-01T07:25:11.458Z,70.09
2019-06-01T07:30:14.981Z,67.57
2019-06-01T07:35:18.353Z,69.68
2019-06-01T07:40:22.966Z,70.25
2019-06-01T07:45:26.960Z,69.28
2019-06-01T07:50:30.289Z,68.10
2019-06-01T07:55:33.755Z,67.35
2019-06-01T08:00:37.185Z,65.58
2019-06-01T08:05:40.519Z,65.13
2019-06-01T08:10:44.622Z,62.92
2019-06-01T08:15:47.967Z,62.40
2019-06-01T08:20:51.483Z,63.71
2019-06-01T08:25:54.864Z,60.26
2019-06-01T08:30:58.310Z,62.13
2019-06-01T08:36:01.657Z,58.74
2019-06-01T08:41:05.180Z,57.90
2019-06-01T08:46:08.502Z,56.76
2019-06-01T08:51:11.854Z,56.30
2019-06-01T08:56:15.182Z,55.38
2019-06-01T09:01:18.585Z,54.68
2019-06-01T09:06:21.945Z,55.49
2019-06-01T09:11:25.355Z,54.57
2019-06-01T09:16:29.619Z,52.76
2019-06-01T09:21:33.600Z,51.51
2019-06-01T09:26:37.094Z,51.20
2019-06-01T09:31:40.495Z,50.21
2019-06-01T09:36:43.872Z,49.46
2019-06-01T09:41:47.302Z,50.27
2019-06-01T09:46:50.739Z,50.88
2019-06-01T09:51:55.550Z,50.91
2019-06-01T09:56:58.879Z,48.63
2019-06-01T10:02:02.208Z,50.26
2019-06-01T10:07:05.542Z,49.74
2019-06-01T10:12:08.970Z,49.09
2019-06-01T10:17:12.314Z,47.24
2019-06-01T10:22:15.844Z,46.72
2019-06-01T10:27:19.258Z,44.51
2019-06-01T10:32:22.673Z,43.50
2019-06-01T10:37:26.017Z,43.05
2019-06-01T10:42:29.328Z,43.31
2019-06-01T10:47:33.769Z,44.60
2019-06-01T10:52:38.310Z,48.79
2019-06-01T10:57:42.778Z,44.44
2019-06-01T11:02:46.268Z,43.56
2019-06-01T11:07:49.618Z,45.02
2019-06-01T11:12:52.947Z,43.58
2019-06-01T11:17:56.572Z,43.40
2019-06-01T11:22:59.928Z,42.09
2019-06-01T11:28:03.277Z,41.25
2019-06-01T11:33:06.582Z,42.40
2019-06-01T11:38:09.913Z,41.65
2019-06-01T11:43:13.245Z,42.47
2019-06-01T11:48:16.595Z,41.62
2019-06-01T11:53:20.014Z,42.03
2019-06-01T11:58:23.481Z,41.64
2019-06-01T12:03:26.830Z,41.09
2019-06-01T12:08:33.962Z,41.91
2019-06-01T12:13:36.027Z,40.08
2019-06-01T12:18:40.622Z,40.25
2019-06-01T12:23:45.529Z,40.67
2019-06-01T12:28:49.442Z,39.63
2019-06-01T12:33:52.751Z,40.31
2019-06-01T12:38:56.100Z,40.94
2019-06-01T12:44:10.201Z,39.49
2019-06-01T12:49:13.666Z,40.75
2019-06-01T12:54:17.097Z,39.49
2019-06-01T12:59:20.482Z,38.87
2019-06-01T13:04:23.846Z,38.86
2019-06-01T13:09:27.185Z,38.95
2019-06-01T13:14:30.593Z,37.20
2019-06-01T13:19:33.900Z,37.67
2019-06-01T13:24:37.242Z,38.64
2019-06-01T13:29:41.627Z,37.64
2019-06-01T13:34:45.104Z,38.59
2019-06-01T13:39:54.402Z,37.54
2019-06-01T13:44:53.710Z,36.46
2019-06-01T13:49:57.039Z,36.98
2019-06-01T13:55:00.664Z,38.09
2019-06-01T14:00:07.675Z,36.75
2019-06-01T14:05:11.170Z,35.90
2019-06-01T14:10:15.856Z,36.79
2019-06-01T14:15:19.746Z,35.36
2019-06-01T14:20:23.193Z,35.21
2019-06-01T14:25:26.642Z,34.72
2019-06-01T14:30:30.165Z,34.95
2019-06-01T14:35:35.878Z,36.43
2019-06-01T14:40:41.377Z,37.03
2019-06-01T14:45:44.015Z,35.21
2019-06-01T14:50:47.552Z,33.16
2019-06-01T14:55:51.729Z,32.43
2019-06-01T15:00:56.455Z,33.84
2019-06-01T15:05:59.983Z,33.28
2019-06-01T15:11:03.471Z,32.42
2019-06-01T15:16:06.810Z,33.26
2019-06-01T15:21:10.243Z,33.63
2019-06-01T15:26:13.588Z,32.59
2019-06-01T15:31:16.929Z,32.03
2019-06-01T15:36:20.314Z,33.57
2019-06-01T15:41:23.658Z,36.84
2019-06-01T15:46:27.167Z,36.41
2019-06-01T15:51:30.500Z,36.34
2019-06-01T15:56:34.042Z,37.30
2019-06-01T16:01:37.489Z,37.83
2019-06-01T16:06:40.883Z,36.48
2019-06-01T16:11:44.344Z,34.28
2019-06-01T16:16:47.757Z,35.05
2019-06-01T16:21:51.069Z,34.05
2019-06-01T16:26:54.385Z,33.20
2019-06-01T16:31:58.654Z,35.09
2019-06-01T16:37:03.200Z,35.30
2019-06-01T16:42:06.596Z,34.12
2019-06-01T16:47:09.930Z,36.10
2019-06-01T16:52:13.302Z,36.29
2019-06-01T16:57:16.840Z,36.26
2019-06-01T17:02:20.343Z,36.33
2019-06-01T17:07:24.002Z,36.86
2019-06-01T17:12:27.373Z,35.59
2019-06-01T17:17:31.101Z,35.53
2019-06-01T17:22:34.706Z,36.51
2019-06-01T17:27:38.222Z,36.48
2019-06-01T17:32:41.663Z,37.86
2019-06-01T17:37:45.027Z,38.18
2019-06-01T17:42:48.432Z,37.60
2019-06-01T17:47:51.938Z,38.14
2019-06-01T17:52:55.399Z,38.06
2019-06-01T17:58:01.381Z,39.15
2019-06-01T18:03:05.914Z,40.30
2019-06-01T18:08:10.340Z,40.76
2019-06-01T18:13:13.994Z,41.12
2019-06-01T18:18:17.365Z,41.58
2019-06-01T18:23:20.792Z,42.32
2019-06-01T18:28:24.235Z,43.32
2019-06-01T18:33:27.562Z,43.06
2019-06-01T18:38:30.902Z,44.09
2019-06-01T18:43:34.232Z,45.94
2019-06-01T18:48:37.587Z,47.23
2019-06-01T18:53:40.989Z,47.99
2019-06-01T18:58:44.321Z,48.99
2019-06-01T19:03:47.686Z,48.86
2019-06-01T19:08:51.156Z,49.42
2019-06-01T19:13:54.596Z,50.33
2019-06-01T19:18:57.964Z,50.01
2019-06-01T19:24:01.685Z,51.35
2019-06-01T19:29:05.098Z,51.95
2019-06-01T19:34:08.934Z,52.79
2019-06-01T19:39:13.320Z,53.30
2019-06-01T19:44:17.884Z,54.51
2019-06-01T19:49:21.332Z,55.28
2019-06-01T19:54:24.792Z,55.70
2019-06-01T19:59:28.259Z,58.68
2019-06-01T20:04:31.693Z,56.94
2019-06-01T20:09:35.194Z,57.98
2019-06-01T20:14:38.580Z,58.18
2019-06-01T20:19:41.958Z,59.91
2019-06-01T20:24:45.530Z,59.58
2019-06-01T20:29:49.128Z,58.83
2019-06-01T20:34:52.669Z,60.47
2019-06-01T20:39:56.183Z,58.49
2019-06-01T20:44:59.485Z,59.82
2019-06-01T20:50:04.092Z,58.35
2019-06-01T20:55:08.259Z,58.19
2019-06-01T21:00:11.844Z,58.44
2019-06-01T21:05:15.807Z,58.84
2019-06-01T21:10:20.493Z,62.51
2019-06-01T21:15:23.922Z,60.52
2019-06-01T21:20:29.948Z,60.77
2019-06-01T21:25:32.493Z,61.91
2019-06-01T21:30:35.939Z,62.24
2019-06-01T21:35:39.328Z,61.20
2019-06-01T21:40:42.898Z,64.09
2019-06-01T21:45:46.210Z,64.06
2019-06-01T21:50:49.530Z,64.06
2019-06-01T21:55:52.861Z,65.54
2019-06-01T22:00:56.407Z,65.26
2019-06-01T22:05:59.761Z,67.46
2019-06-01T22:11:03.142Z,66.10
2019-06-01T22:16:06.450Z,68.34
2019-06-01T22:21:09.806Z,65.65
2019-06-01T22:26:13.200Z,66.62
2019-06-01T22:31:16.567Z,65.77
2019-06-01T22:36:20.507Z,66.37
2019-06-01T22:41:23.973Z,67.68
2019-06-01T22:46:28.612Z,69.64
2019-06-01T22:51:33.265Z,69.74
2019-06-01T22:56:36.835Z,69.85
2019-06-01T23:01:40.258Z,69.20
2019-06-01T23:11:54.952Z,69.30
2019-06-01T23:16:58.325Z,69.25
2019-06-01T23:22:01.667Z,68.45
2019-06-01T23:27:04.987Z,67.96
2019-06-01T23:32:08.475Z,69.54
2019-06-01T23:37:11.842Z,69.51
2019-06-01T23:42:15.276Z,70.67
2019-06-01T23:47:18.666Z,70.77
2019-06-01T23:52:21.933Z,74.15
2019-06-01T23:57:25.664Z,71.11
